createdAt,value
2018-12-09T00:00:07.439Z,97563.05
2018-12-09T00:01:08.615Z,97565.70
2018-12-09T00:02:09.906Z,97559.98
2018-12-09T00:03:11.235Z,97565.39
2018-12-09T00:04:12.408Z,97564.59
2018-12-09T00:05:13.578Z,97564.06
2018-12-09T00:06:14.800Z,97560.61
2018-12-09T00:07:15.989Z,97564.59
2018-12-09T00:08:17.198Z,97568.58
2018-12-09T00:09:18.409Z,97561.32
2018-12-09T00:10:19.565Z,97559.47
2018-12-09T00:11:20.766Z,97556.50
2018-12-09T00:12:21.934Z,97556.01
2018-12-09T00:13:23.118Z,97562.65
2018-12-09T00:14:24.310Z,97562.95
2018-12-09T00:15:25.521Z,97558.14
2018-12-09T00:16:26.718Z,97555.66
2018-12-09T00:17:27.891Z,97560.48
2018-12-09T00:18:29.062Z,97557.33
2018-12-09T00:19:30.214Z,97556.50
2018-12-09T00:20:31.393Z,97553.19
2018-12-09T00:21:32.584Z,97558.02
2018-12-09T00:22:33.779Z,97562.80
2018-12-09T00:23:34.951Z,97560.98
2018-12-09T00:24:36.112Z,97560.14
2018-12-09T00:25:37.308Z,97560.14
2018-12-09T00:26:38.483Z,97559.83
2018-12-09T00:27:39.666Z,97560.36
2018-12-09T00:28:40.847Z,97555.05
2018-12-09T00:29:42.009Z,97561.16
2018-12-09T00:30:43.173Z,97552.89
2018-12-09T00:31:44.427Z,97556.88
2018-12-09T00:32:45.607Z,97558.20
2018-12-09T00:33:46.795Z,97556.88
2018-12-09T00:34:47.966Z,97560.55
2018-12-09T00:35:49.143Z,97558.51
2018-12-09T00:36:50.334Z,97553.91
2018-12-09T00:37:51.523Z,97555.23
2018-12-09T00:38:52.688Z,97557.89
2018-12-09T00:39:53.873Z,97554.43
2018-12-09T00:40:55.059Z,97555.23
2018-12-09T00:41:56.224Z,97554.73
2018-12-09T00:42:57.578Z,97553.41
2018-12-09T00:43:58.746Z,97547.79
2018-12-09T00:44:59.911Z,97549.30
2018-12-09T00:46:01.105Z,97546.46
2018-12-09T00:47:02.296Z,97550.45
2018-12-09T00:48:03.511Z,97465.90
2018-12-09T00:49:04.723Z,97551.77
2018-12-09T00:50:06.039Z,97543.50
2018-12-09T00:51:07.218Z,97550.45
2018-12-09T00:52:08.418Z,97544.83
2018-12-09T00:53:09.606Z,97546.16
2018-12-09T00:54:10.765Z,97550.14
2018-12-09T00:55:12.070Z,97544.83
2018-12-09T00:56:13.270Z,97542.66
2018-12-09T00:57:14.435Z,97548.28
2018-12-09T00:58:15.602Z,97545.32
2018-12-09T00:59:16.777Z,97541.86
2018-12-09T01:00:17.945Z,97549.30
2018-12-09T01:01:19.110Z,97549.12
2018-12-09T01:02:20.308Z,97545.94
2018-12-09T01:03:21.475Z,97547.17
2018-12-09T01:04:22.690Z,97545.84
2018-12-09T01:05:24.104Z,97546.64
2018-12-09T01:06:25.278Z,97545.84
2018-12-09T01:07:26.443Z,97543.98
2018-12-09T01:08:27.609Z,97547.66
2018-12-09T01:09:28.791Z,97543.98
2018-12-09T01:10:29.964Z,97548.81
2018-12-09T01:11:31.145Z,97549.83
2018-12-09T01:12:32.353Z,97543.38
2018-12-09T01:13:33.540Z,97547.17
2018-12-09T01:14:34.697Z,97545.53
2018-12-09T01:15:35.880Z,97542.35
2018-12-09T01:16:37.079Z,97546.55
2018-12-09T01:17:38.245Z,97547.66
2018-12-09T01:18:39.413Z,97542.88
2018-12-09T01:19:40.561Z,97547.17
2018-12-09T01:20:41.732Z,97545.53
2018-12-09T01:21:42.926Z,97544.20
2018-12-09T01:22:44.083Z,97544.70
2018-12-09T01:23:45.271Z,97546.86
2018-12-09T01:24:46.437Z,97545.53
2018-12-09T01:25:47.613Z,97545.53
2018-12-09T01:26:48.806Z,97542.57
2018-12-09T01:27:50.022Z,97543.89
2018-12-09T01:28:51.197Z,97544.70
2018-12-09T01:29:52.376Z,97550.23
2018-12-09T01:30:53.559Z,97542.57
2018-12-09T01:31:54.726Z,97545.72
2018-12-09T01:32:55.925Z,97546.03
2018-12-09T01:33:57.342Z,97545.23
2018-12-09T01:34:58.497Z,97549.52
2018-12-09T01:35:59.662Z,97548.38
2018-12-09T01:37:00.827Z,97548.90
2018-12-09T01:38:02.014Z,97552.89
2018-12-09T01:39:04.659Z,97546.55
2018-12-09T01:40:06.244Z,97545.41
2018-12-09T01:41:07.442Z,97546.25
2018-12-09T01:42:08.640Z,97550.72
2018-12-09T01:43:09.826Z,97544.61
2018-12-09T01:44:11.016Z,97541.42
2018-12-09T01:45:13.037Z,97548.06
2018-12-09T01:46:14.223Z,97543.59
2018-12-09T01:47:15.929Z,97539.79
2018-12-09T01:48:17.232Z,97542.26
2018-12-09T01:49:18.408Z,97540.09
2018-12-09T01:50:19.581Z,97544.61
2018-12-09T01:51:20.771Z,97545.41
2018-12-09T01:52:21.956Z,97544.91
2018-12-09T01:53:37.036Z,97538.28
2018-12-09T01:54:38.232Z,97540.94
2018-12-09T01:55:39.443Z,97534.78
2018-12-09T01:56:40.680Z,97540.63
2018-12-09T01:57:41.862Z,97509.89
2018-12-09T01:58:43.023Z,97544.61
2018-12-09T01:59:44.198Z,97543.77
2018-12-09T02:00:45.373Z,97543.28
2018-12-09T02:01:46.787Z,97549.09
2018-12-09T02:02:47.956Z,97547.27
2018-12-09T02:03:49.140Z,97545.63
2018-12-09T02:04:50.349Z,97549.92
2018-12-09T02:05:51.586Z,97551.25
2018-12-09T02:06:52.906Z,97547.76
2018-12-09T02:07:54.103Z,97550.72
2018-12-09T02:08:55.291Z,97549.92
2018-12-09T02:09:56.490Z,97544.79
2018-12-09T02:10:57.642Z,97548.59
2018-12-09T02:11:58.869Z,97550.72
2018-12-09T02:13:00.088Z,97550.41
2018-12-09T02:14:01.533Z,97547.27
2018-12-09T02:15:03.070Z,97544.61
2018-12-09T02:16:04.309Z,97547.76
2018-12-09T02:17:05.526Z,97548.59
2018-12-09T02:18:06.746Z,97547.27
2018-12-09T02:19:13.346Z,97537.97
2018-12-09T02:20:14.585Z,97540.19
2018-12-09T02:21:15.762Z,97546.42
2018-12-09T02:22:16.965Z,97541.95
2018-12-09T02:23:18.143Z,97548.90
2018-12-09T02:24:19.357Z,97547.76
2018-12-09T02:25:20.540Z,97552.05
2018-12-09T02:26:21.752Z,97551.74
2018-12-09T02:27:23.270Z,97547.45
2018-12-09T02:28:24.476Z,97544.30
2018-12-09T02:29:25.665Z,97544.30
2018-12-09T02:30:26.875Z,97542.97
2018-12-09T02:31:28.066Z,97543.28
2018-12-09T02:32:29.275Z,97544.61
2018-12-09T02:33:30.582Z,97544.30
2018-12-09T02:34:31.778Z,97539.30
2018-12-09T02:35:37.007Z,97542.45
2018-12-09T02:36:38.186Z,97544.61
2018-12-09T02:37:39.415Z,97543.77
2018-12-09T02:38:40.610Z,97540.63
2018-12-09T02:39:41.886Z,97541.95
2018-12-09T02:40:43.299Z,97539.30
2018-12-09T02:41:44.469Z,97541.95
2018-12-09T02:42:45.672Z,97541.95
2018-12-09T02:43:46.832Z,97541.95
2018-12-09T02:44:48.032Z,97534.48
2018-12-09T02:45:49.227Z,97539.30
2018-12-09T02:46:57.480Z,97535.00
2018-12-09T02:47:58.683Z,97539.79
2018-12-09T02:48:59.854Z,97541.12
2018-12-09T02:50:01.041Z,97541.12
2018-12-09T02:51:02.244Z,97542.97
2018-12-09T02:52:03.566Z,97538.98
2018-12-09T02:53:04.806Z,97541.30
2018-12-09T02:54:06.367Z,97542.14
2018-12-09T02:55:07.582Z,97542.97
2018-12-09T02:56:08.789Z,97526.57
2018-12-09T02:57:09.964Z,97540.31
2018-12-09T02:58:11.175Z,97542.62
2018-12-09T02:59:12.359Z,97539.79
2018-12-09T03:00:13.983Z,97539.79
2018-12-09T03:01:15.259Z,97542.45
2018-12-09T03:02:16.431Z,97536.64
2018-12-09T03:03:17.654Z,97547.88
2018-12-09T03:04:18.803Z,97536.42
2018-12-09T03:05:19.982Z,97545.23
2018-12-09T03:06:21.397Z,97540.72
2018-12-09T03:07:22.607Z,97539.39
2018-12-09T03:08:23.793Z,97531.95
2018-12-09T03:09:24.984Z,97539.70
2018-12-09T03:10:26.166Z,97536.23
2018-12-09T03:11:27.382Z,97540.53
2018-12-09T03:12:28.562Z,97542.66
2018-12-09T03:13:29.732Z,97542.17
2018-12-09T03:14:30.913Z,97542.66
2018-12-09T03:15:32.126Z,97543.98
2018-12-09T03:16:33.352Z,97549.12
2018-12-09T03:17:34.617Z,97542.97
2018-12-09T03:18:36.127Z,97542.66
2018-12-09T03:19:37.304Z,97549.92
2018-12-09T03:20:38.486Z,97544.61
2018-12-09T03:21:39.797Z,97545.63
2018-12-09T03:22:40.969Z,97520.86
2018-12-09T03:23:42.148Z,97538.49
2018-12-09T03:24:43.325Z,97543.80
2018-12-09T03:25:44.516Z,97541.64
2018-12-09T03:26:45.718Z,97545.13
2018-12-09T03:27:47.038Z,97544.83
2018-12-09T03:28:48.220Z,97542.17
2018-12-09T03:29:49.396Z,97543.80
2018-12-09T03:30:50.994Z,97543.50
2018-12-09T03:31:52.201Z,97541.15
2018-12-09T03:32:53.376Z,97542.48
2018-12-09T03:33:54.558Z,97543.80
2018-12-09T03:34:55.880Z,97541.95
2018-12-09T03:35:57.080Z,97541.15
2018-12-09T03:36:58.269Z,97538.19
2018-12-09T03:37:59.473Z,97536.86
2018-12-09T03:39:00.647Z,97539.52
2018-12-09T03:40:01.922Z,97541.86
2018-12-09T03:41:03.398Z,97540.00
2018-12-09T03:42:04.703Z,97539.52
2018-12-09T03:43:06.015Z,97540.53
2018-12-09T03:44:07.192Z,97542.66
2018-12-09T03:45:08.411Z,97543.50
2018-12-09T03:46:09.625Z,97540.53
2018-12-09T03:47:10.811Z,97540.22
2018-12-09T03:48:11.996Z,97550.32
2018-12-09T03:49:13.154Z,97545.01
2018-12-09T03:50:14.328Z,97545.84
2018-12-09T03:51:15.512Z,97541.55
2018-12-09T03:52:16.806Z,97545.01
2018-12-09T03:53:18.103Z,97541.55
2018-12-09T03:54:19.708Z,97545.01
2018-12-09T03:55:20.899Z,97541.55
2018-12-09T03:56:22.090Z,97547.66
2018-12-09T03:57:23.266Z,97548.19
2018-12-09T03:58:24.466Z,97546.86
2018-12-09T03:59:25.635Z,97547.36
2018-12-09T04:00:26.812Z,97547.36
2018-12-09T04:01:27.985Z,97544.70
2018-12-09T04:02:29.171Z,97546.55
2018-12-09T04:03:30.345Z,97542.57
2018-12-09T04:04:31.497Z,97540.94
2018-12-09T04:05:33.019Z,97542.57
2018-12-09T04:06:34.190Z,97541.73
2018-12-09T04:07:35.388Z,97544.39
2018-12-09T04:08:36.581Z,97542.26
2018-12-09T04:09:37.790Z,97536.64
2018-12-09T04:10:38.962Z,97539.30
2018-12-09T04:11:40.193Z,97541.95
2018-12-09T04:12:41.367Z,97543.59
2018-12-09T04:13:42.530Z,97547.58
2018-12-09T04:14:43.704Z,97543.28
2018-12-09T04:15:44.882Z,97544.30
2018-12-09T04:16:46.221Z,97545.63
2018-12-09T04:17:47.791Z,97539.30
2018-12-09T04:18:48.968Z,97550.94
2018-12-09T04:19:50.209Z,97549.61
2018-12-09T04:20:51.411Z,97546.95
2018-12-09T04:21:52.620Z,97548.28
2018-12-09T04:22:53.801Z,97550.94
2018-12-09T04:23:54.975Z,97554.40
2018-12-09T04:24:56.224Z,97550.94
2018-12-09T04:25:57.434Z,97555.72
2018-12-09T04:26:58.609Z,97559.89
2018-12-09T04:27:59.796Z,97551.92
2018-12-09T04:29:01.304Z,97554.92
2018-12-09T04:30:03.421Z,97552.94
2018-12-09T04:31:04.621Z,97559.40
2018-12-09T04:32:05.829Z,97553.25
2018-12-09T04:33:07.010Z,97555.91
2018-12-09T04:34:08.212Z,97552.45
2018-12-09T04:35:09.424Z,97552.45
2018-12-09T04:36:10.592Z,97553.78
2018-12-09T04:37:11.768Z,97551.12
2018-12-09T04:38:12.957Z,97553.25
2018-12-09T04:39:14.150Z,97553.25
2018-12-09T04:40:15.313Z,97549.98
2018-12-09T04:41:16.902Z,97551.92
2018-12-09T04:42:18.112Z,97555.41
2018-12-09T04:43:19.286Z,97551.92
2018-12-09T04:44:20.463Z,97554.58
2018-12-09T04:45:21.637Z,97557.23
2018-12-09T04:46:22.833Z,97559.89
2018-12-09T04:47:23.991Z,97560.42
2018-12-09T04:48:25.183Z,97556.44
2018-12-09T04:49:26.398Z,97555.59
2018-12-09T04:50:27.685Z,97558.26
2018-12-09T04:51:33.754Z,97556.92
2018-12-09T04:52:34.986Z,97557.77
2018-12-09T04:53:36.501Z,97557.45
2018-12-09T04:54:37.780Z,97556.92
2018-12-09T04:55:39.016Z,97560.91
2018-12-09T04:56:40.195Z,97554.80
2018-12-09T04:57:41.373Z,97556.13
2018-12-09T04:58:47.373Z,97554.27
2018-12-09T04:59:48.542Z,97549.58
2018-12-09T05:00:52.454Z,97562.77
2018-12-09T05:01:53.620Z,97557.45
2018-12-09T05:02:54.804Z,97558.78
2018-12-09T05:03:56.124Z,97560.91
2018-12-09T05:04:57.281Z,97561.93
2018-12-09T05:05:58.468Z,97559.27
2018-12-09T05:07:00.095Z,97560.11
2018-12-09T05:08:01.268Z,97566.44
2018-12-09T05:09:03.522Z,97564.59
2018-12-09T05:10:05.249Z,97561.13
2018-12-09T05:11:06.438Z,97563.56
2018-12-09T05:12:07.629Z,97561.13
2018-12-09T05:13:08.811Z,97563.78
2018-12-09T05:14:09.980Z,97563.78
2018-12-09T05:15:11.134Z,97560.11
2018-12-09T05:16:12.328Z,97562.77
2018-12-09T05:17:13.531Z,97563.26
2018-12-09T05:18:14.942Z,97568.38
2018-12-09T05:19:16.118Z,97565.42
2018-12-09T05:20:17.326Z,97568.57
2018-12-09T05:21:18.506Z,97563.78
2018-12-09T05:22:19.723Z,97566.75
2018-12-09T05:23:20.890Z,97568.88
2018-12-09T05:24:22.059Z,97567.55
2018-12-09T05:25:23.219Z,97571.04
2018-12-09T05:26:24.400Z,97568.08
2018-12-09T05:27:25.586Z,97570.73
2018-12-09T05:28:26.780Z,97569.89
2018-12-09T05:29:27.971Z,97569.89
2018-12-09T05:30:29.574Z,97578.70
2018-12-09T05:31:30.765Z,97573.88
2018-12-09T05:32:31.964Z,97575.02
2018-12-09T05:33:33.148Z,97578.17
2018-12-09T05:34:34.317Z,97572.86
2018-12-09T05:35:35.501Z,97575.20
2018-12-09T05:36:36.678Z,97577.16
2018-12-09T05:37:37.868Z,97575.52
2018-12-09T05:38:39.039Z,97574.19
2018-12-09T05:39:40.212Z,97580.83
2018-12-09T05:40:41.522Z,97575.02
2018-12-09T05:41:43.119Z,97576.84
2018-12-09T05:42:44.301Z,97576.84
2018-12-09T05:43:45.476Z,97577.16
2018-12-09T05:44:46.697Z,97575.83
2018-12-09T05:45:47.871Z,97581.14
2018-12-09T05:46:49.050Z,97577.16
2018-12-09T05:47:50.237Z,97582.99
2018-12-09T05:48:51.445Z,97582.99
2018-12-09T05:49:52.618Z,97583.80
2018-12-09T05:50:53.795Z,97577.16
2018-12-09T05:51:54.973Z,97582.16
2018-12-09T05:52:56.687Z,97584.63
2018-12-09T05:53:57.868Z,97584.63
2018-12-09T05:54:59.027Z,97586.98
2018-12-09T05:56:00.198Z,97585.13
2018-12-09T05:57:01.376Z,97589.11
2018-12-09T05:58:02.570Z,97586.45
2018-12-09T05:59:03.748Z,97590.96
2018-12-09T06:00:05.071Z,97591.27
2018-12-09T06:01:06.288Z,97589.94
2018-12-09T06:02:19.670Z,97593.92
2018-12-09T06:03:20.879Z,97597.08
2018-12-09T06:04:22.043Z,97593.09
2018-12-09T06:05:23.296Z,97596.27
2018-12-09T06:06:24.903Z,97596.09
2018-12-09T06:07:26.108Z,97590.77
2018-12-09T06:08:27.301Z,97602.33
2018-12-09T06:09:28.484Z,97598.13
2018-12-09T06:10:29.658Z,97593.75
2018-12-09T06:11:30.851Z,97597.86
2018-12-09T06:12:32.046Z,97596.97
2018-12-09T06:13:33.292Z,97602.41
2018-12-09T06:14:34.478Z,97599.03
2018-12-09T06:15:35.669Z,97602.50
2018-12-09T06:16:36.850Z,97603.45
2018-12-09T06:17:38.341Z,97604.27
2018-12-09T06:18:39.516Z,97600.09
2018-12-09T06:19:40.720Z,97603.55
2018-12-09T06:20:41.926Z,97596.20
2018-12-09T06:21:43.117Z,97598.86
2018-12-09T06:22:44.309Z,97602.13
2018-12-09T06:23:45.561Z,97605.41
2018-12-09T06:24:46.729Z,97609.08
2018-12-09T06:25:47.913Z,97605.09
2018-12-09T06:26:49.103Z,97605.41
2018-12-09T06:27:50.318Z,97611.02
2018-12-09T06:28:51.506Z,97604.59
2018-12-09T06:29:52.822Z,97606.23
2018-12-09T06:30:54.008Z,97611.02
2018-12-09T06:31:55.199Z,97608.06
2018-12-09T06:32:56.379Z,97616.03
2018-12-09T06:33:57.618Z,97612.36
2018-12-09T06:34:58.809Z,97617.36
2018-12-09T06:35:59.995Z,97617.67
2018-12-09T06:37:01.177Z,97617.05
2018-12-09T06:38:02.342Z,97622.67
2018-12-09T06:39:04.370Z,97622.18
2018-12-09T06:40:05.580Z,97623.20
2018-12-09T06:41:07.207Z,97623.20
2018-12-09T06:42:08.404Z,97623.20
2018-12-09T06:43:09.592Z,97619.71
2018-12-09T06:44:10.802Z,97625.86
2018-12-09T06:45:11.991Z,97628.20
2018-12-09T06:46:13.184Z,97622.05
2018-12-09T06:47:14.472Z,97625.02
2018-12-09T06:48:15.708Z,97626.88
2018-12-09T06:49:16.938Z,97630.03
2018-12-09T06:50:18.095Z,97634.53
2018-12-09T06:51:19.267Z,97627.37
2018-12-09T06:52:20.856Z,97628.91
2018-12-09T06:53:22.166Z,97632.38
2018-12-09T06:54:23.351Z,97635.56
2018-12-09T06:55:24.511Z,97636.05
2018-12-09T06:56:25.669Z,97640.03
2018-12-09T06:57:26.880Z,97636.27
2018-12-09T06:58:28.077Z,97644.55
2018-12-09T06:59:29.242Z,97643.41
2018-12-09T07:00:30.436Z,97639.94
2018-12-09T07:01:31.664Z,97651.38
2018-12-09T07:02:33.061Z,97645.75
2018-12-09T07:03:34.256Z,97644.73
2018-12-09T07:04:35.426Z,97649.73
2018-12-09T07:05:36.645Z,97648.94
2018-12-09T07:06:37.867Z,97650.75
2018-12-09T07:07:39.059Z,97647.30
2018-12-09T07:08:40.278Z,97645.97
2018-12-09T07:09:41.492Z,97648.94
2018-12-09T07:10:42.687Z,97652.08
2018-12-09T07:11:43.870Z,97654.73
2018-12-09T07:12:45.071Z,97652.61
2018-12-09T07:13:46.786Z,97648.09
2018-12-09T07:14:47.995Z,97660.05
2018-12-09T07:15:49.148Z,97661.69
2018-12-09T07:16:50.343Z,97654.73
2018-12-09T07:17:51.522Z,97659.25
2018-12-09T07:18:52.786Z,97658.41
2018-12-09T07:19:53.964Z,97657.09
2018-12-09T07:20:55.130Z,97655.76
2018-12-09T07:21:56.337Z,97654.52
2018-12-09T07:22:57.528Z,97659.74
2018-12-09T07:23:58.705Z,97664.75
2018-12-09T07:25:00.454Z,97666.39
2018-12-09T07:26:01.648Z,97673.52
2018-12-09T07:27:03.145Z,97668.73
2018-12-09T07:28:04.439Z,97670.55
2018-12-09T07:29:05.626Z,97673.20
2018-12-09T07:30:07.652Z,97678.03
2018-12-09T07:31:08.841Z,97665.77
2018-12-09T07:32:10.005Z,97669.44
2018-12-09T07:33:11.178Z,97673.73
2018-12-09T07:34:12.349Z,97670.77
2018-12-09T07:35:13.533Z,97674.23
2018-12-09T07:36:15.044Z,97668.61
2018-12-09T07:37:16.224Z,97673.92
2018-12-09T07:38:17.427Z,97677.90
2018-12-09T07:39:18.623Z,97685.06
2018-12-09T07:40:19.806Z,97682.41
2018-12-09T07:41:20.972Z,97680.77
2018-12-09T07:42:22.151Z,97686.09
2018-12-09T07:43:23.335Z,97682.59
2018-12-09T07:44:24.507Z,97684.45
2018-12-09T07:45:25.830Z,97687.41
2018-12-09T07:46:27.039Z,97662.14
2018-12-09T07:47:28.634Z,97688.12
2018-12-09T07:48:29.799Z,97686.48
2018-12-09T07:49:30.970Z,97687.81
2018-12-09T07:50:32.137Z,97694.77
2018-12-09T07:51:33.330Z,97694.95
2018-12-09T07:52:34.501Z,97696.09
2018-12-09T07:53:35.675Z,97691.27
2018-12-09T07:54:36.854Z,97697.60
2018-12-09T07:55:38.020Z,97696.27
2018-12-09T07:56:39.182Z,97704.55
2018-12-09T07:57:40.359Z,97707.73
2018-12-09T07:58:41.525Z,97703.75
2018-12-09T07:59:42.802Z,97703.75
2018-12-09T08:00:43.978Z,97702.60
2018-12-09T08:01:45.145Z,97706.09
2018-12-09T08:02:46.297Z,97713.23
2018-12-09T08:03:47.465Z,97705.26
2018-12-09T08:04:48.665Z,97713.05
2018-12-09T08:05:49.862Z,97715.89
2018-12-09T08:06:51.046Z,97711.41
2018-12-09T08:07:52.207Z,97721.69
2018-12-09T08:08:53.371Z,97714.21
2018-12-09T08:09:54.554Z,97718.72
2018-12-09T08:10:55.717Z,97723.51
2018-12-09T08:11:56.880Z,97724.03
2018-12-09T08:12:58.060Z,97721.87
2018-12-09T08:13:59.225Z,97728.02
2018-12-09T08:15:00.391Z,97727.70
2018-12-09T08:16:01.641Z,97723.72
2018-12-09T08:17:02.811Z,97733.33
2018-12-09T08:18:03.989Z,97731.38
2018-12-09T08:19:05.287Z,97729.53
2018-12-09T08:20:06.700Z,97735.67
2018-12-09T08:21:09.139Z,97735.37
2018-12-09T08:22:10.486Z,97734.03
2018-12-09T08:23:11.646Z,97734.53
2018-12-09T08:24:12.805Z,97735.37
2018-12-09T08:25:13.961Z,97735.05
2018-12-09T08:26:15.140Z,97736.07
2018-12-09T08:27:16.295Z,97736.69
2018-12-09T08:28:17.502Z,97737.70
2018-12-09T08:29:18.663Z,97736.07
2018-12-09T08:30:19.863Z,97740.86
2018-12-09T08:31:21.064Z,97737.09
2018-12-09T08:32:22.232Z,97745.68
2018-12-09T08:33:23.421Z,97740.05
2018-12-09T08:34:24.602Z,97741.38
2018-12-09T08:35:25.775Z,97740.86
2018-12-09T08:36:26.968Z,97742.40
2018-12-09T08:37:28.147Z,97741.07
2018-12-09T08:38:29.304Z,97746.38
2018-12-09T08:39:30.499Z,97743.41
2018-12-09T08:40:31.978Z,97749.84
2018-12-09T08:41:33.124Z,97746.88
2018-12-09T08:42:34.264Z,97747.71
2018-12-09T08:43:35.439Z,97749.04
2018-12-09T08:44:36.629Z,97748.73
2018-12-09T08:45:37.782Z,97751.38
2018-12-09T08:46:38.969Z,97754.84
2018-12-09T08:47:40.142Z,97752.19
2018-12-09T08:48:41.322Z,97763.65
2018-12-09T08:49:42.535Z,97758.83
2018-12-09T08:50:43.732Z,97757.32
2018-12-09T08:51:44.966Z,97748.73
2018-12-09T08:52:46.150Z,97754.04
2018-12-09T08:53:47.360Z,97755.16
2018-12-09T08:54:48.533Z,97762.01
2018-12-09T08:55:50.695Z,97753.73
2018-12-09T08:56:51.878Z,97756.70
2018-12-09T08:57:53.043Z,97759.35
2018-12-09T08:58:54.237Z,97760.68
2018-12-09T08:59:55.412Z,97761.70
2018-12-09T09:00:56.583Z,97761.70
2018-12-09T09:01:57.755Z,97766.48
2018-12-09T09:02:58.927Z,97760.80
2018-12-09T09:04:00.108Z,97769.98
2018-12-09T09:05:01.289Z,97770.99
2018-12-09T09:06:02.494Z,97733.54
2018-12-09T09:07:03.823Z,97767.50
2018-12-09T09:08:05.036Z,97767.81
2018-12-09T09:09:06.360Z,97761.70
2018-12-09T09:10:07.685Z,97761.70
2018-12-09T09:11:08.902Z,97763.02
2018-12-09T09:12:10.048Z,97763.02
2018-12-09T09:13:11.202Z,97764.35
2018-12-09T09:14:12.363Z,97765.68
2018-12-09T09:15:13.659Z,97765.68
2018-12-09T09:16:14.805Z,97760.37
2018-12-09T09:17:15.950Z,97759.84
2018-12-09T09:18:17.093Z,97766.30
2018-12-09T09:19:18.239Z,97760.99
2018-12-09T09:20:19.438Z,97763.13
2018-12-09T09:21:20.600Z,97763.65
2018-12-09T09:22:21.779Z,97772.24
2018-12-09T09:23:22.944Z,97778.88
2018-12-09T09:24:24.155Z,97772.24
2018-12-09T09:25:25.350Z,97747.81
2018-12-09T09:26:26.538Z,97770.91
2018-12-09T09:27:27.752Z,97773.05
2018-12-09T09:28:28.932Z,97769.06
2018-12-09T09:29:30.132Z,97775.52
2018-12-09T09:30:31.306Z,97772.87
2018-12-09T09:31:32.526Z,97768.57
2018-12-09T09:32:33.841Z,97772.55
2018-12-09T09:33:35.035Z,97776.85
2018-12-09T09:34:36.241Z,97778.67
2018-12-09T09:35:37.555Z,97776.85
2018-12-09T09:36:38.722Z,97782.16
2018-12-09T09:37:39.907Z,97784.30
2018-12-09T09:38:41.098Z,97786.95
2018-12-09T09:39:42.298Z,97755.33
2018-12-09T09:40:43.517Z,97789.12
2018-12-09T09:41:44.710Z,97796.25
2018-12-09T09:42:45.886Z,97791.46
2018-12-09T09:43:47.058Z,97797.09
2018-12-09T09:44:48.231Z,97800.76
2018-12-09T09:45:49.415Z,97803.41
2018-12-09T09:46:50.606Z,97794.12
2018-12-09T09:47:51.789Z,97778.38
2018-12-09T09:48:53.117Z,97795.13
2018-12-09T09:49:54.298Z,97794.12
2018-12-09T09:50:55.466Z,97795.45
2018-12-09T09:51:56.654Z,97799.12
2018-12-09T09:52:57.842Z,97798.91
2018-12-09T09:53:59.014Z,97802.09
2018-12-09T09:55:00.199Z,97804.75
2018-12-09T09:56:01.382Z,97802.09
2018-12-09T09:57:02.688Z,97804.43
2018-12-09T09:58:03.869Z,97809.22
2018-12-09T09:59:05.038Z,97808.42
2018-12-09T10:00:06.653Z,97804.92
2018-12-09T10:01:07.830Z,97808.10
2018-12-09T10:02:08.990Z,97804.13
2018-12-09T10:03:10.231Z,97806.77
2018-12-09T10:04:11.408Z,97802.79
2018-12-09T10:05:12.625Z,97808.10
2018-12-09T10:06:13.811Z,97806.46
2018-12-09T10:07:15.000Z,97813.10
2018-12-09T10:08:16.174Z,97811.25
2018-12-09T10:09:17.369Z,97806.95
2018-12-09T10:10:18.608Z,97803.98
2018-12-09T10:11:19.798Z,97810.13
2018-12-09T10:12:20.944Z,97805.84
2018-12-09T10:13:22.110Z,97803.67
2018-12-09T10:14:23.288Z,97810.13
2018-12-09T10:15:24.456Z,97805.52
2018-12-09T10:16:25.613Z,97800.84
2018-12-09T10:17:26.806Z,97801.85
2018-12-09T10:18:27.961Z,97808.48
2018-12-09T10:19:29.148Z,97802.87
2018-12-09T10:20:30.343Z,97807.86
2018-12-09T10:21:31.666Z,97809.19
2018-12-09T10:22:32.869Z,97803.88
2018-12-09T10:23:34.033Z,97804.69
2018-12-09T10:24:35.261Z,97803.88
2018-12-09T10:25:36.463Z,97808.88
2018-12-09T10:26:37.652Z,97815.52
2018-12-09T10:27:38.834Z,97813.18
2018-12-09T10:28:39.983Z,97813.67
2018-12-09T10:29:41.167Z,97809.69
2018-12-09T10:30:42.337Z,97814.69
2018-12-09T10:31:43.515Z,97815.52
2018-12-09T10:32:44.673Z,97810.20
2018-12-09T10:33:46.040Z,97807.73
2018-12-09T10:34:47.214Z,97806.89
2018-12-09T10:35:48.402Z,97805.08
2018-12-09T10:36:49.581Z,97804.23
2018-12-09T10:37:50.774Z,97800.78
2018-12-09T10:38:51.951Z,97801.09
2018-12-09T10:39:53.126Z,97802.11
2018-12-09T10:40:54.326Z,97805.56
2018-12-09T10:41:55.519Z,97807.91
2018-12-09T10:42:56.675Z,97808.74
2018-12-09T10:43:57.866Z,97810.56
2018-12-09T10:44:59.049Z,97807.59
2018-12-09T10:46:00.249Z,97809.23
2018-12-09T10:47:01.455Z,97812.91
2018-12-09T10:48:02.748Z,97811.09
2018-12-09T10:49:03.992Z,97805.95
2018-12-09T10:50:06.188Z,97810.25
2018-12-09T10:51:07.374Z,97813.74
2018-12-09T10:52:08.558Z,97807.28
2018-12-09T10:53:09.725Z,97811.58
2018-12-09T10:54:10.900Z,97811.27
2018-12-09T10:55:12.077Z,97809.94
2018-12-09T10:56:13.218Z,97810.77
2018-12-09T10:57:14.383Z,97810.46
2018-12-09T10:58:15.547Z,97809.31
2018-12-09T10:59:16.706Z,97812.59
2018-12-09T11:00:19.938Z,97810.15
2018-12-09T11:01:25.969Z,97815.25
2018-12-09T11:02:27.147Z,97813.12
2018-12-09T11:03:28.312Z,97811.79
2018-12-09T11:04:29.485Z,97808.30
2018-12-09T11:05:30.642Z,97806.16
2018-12-09T11:06:31.831Z,97803.51
2018-12-09T11:07:33.016Z,97805.33
2018-12-09T11:08:34.204Z,97802.67
2018-12-09T11:09:35.412Z,97805.33
2018-12-09T11:10:36.563Z,97805.84
2018-12-09T11:11:37.713Z,97807.67
2018-12-09T11:12:38.969Z,97809.83
2018-12-09T11:13:40.167Z,97807.67
2018-12-09T11:14:41.414Z,97806.34
2018-12-09T11:15:42.573Z,97805.84
2018-12-09T11:16:43.774Z,97806.66
2018-12-09T11:17:44.912Z,97804.00
2018-12-09T11:18:46.078Z,97812.28
2018-12-09T11:19:47.233Z,97804.63
2018-12-09T11:20:48.394Z,97808.61
2018-12-09T11:21:49.562Z,97805.46
2018-12-09T11:22:50.698Z,97797.13
2018-12-09T11:23:51.861Z,97803.30
2018-12-09T11:24:53.015Z,97808.12
2018-12-09T11:25:54.172Z,97804.14
2018-12-09T11:26:55.335Z,97808.92
2018-12-09T11:27:56.507Z,97801.97
2018-12-09T11:28:57.655Z,97807.59
2018-12-09T11:29:58.810Z,97812.42
2018-12-09T11:30:59.978Z,97814.23
2018-12-09T11:32:01.157Z,97808.92
2018-12-09T11:33:02.342Z,97815.56
2018-12-09T11:34:03.533Z,97812.59
2018-12-09T11:35:04.732Z,97810.25
2018-12-09T11:36:05.963Z,97816.89
2018-12-09T11:37:07.127Z,97814.45
2018-12-09T11:38:08.278Z,97814.23
2018-12-09T11:39:09.525Z,97812.59
2018-12-09T11:40:10.834Z,97809.94
2018-12-09T11:41:11.986Z,97810.46
2018-12-09T11:42:13.147Z,97807.28
2018-12-09T11:43:14.302Z,97807.28
2018-12-09T11:44:15.446Z,97811.27
2018-12-09T11:45:16.601Z,97808.92
2018-12-09T11:46:17.776Z,97811.79
2018-12-09T11:47:18.938Z,97812.91
2018-12-09T11:48:20.224Z,97812.59
2018-12-09T11:49:21.393Z,97818.42
2018-12-09T11:50:22.543Z,97817.10
2018-12-09T11:51:23.704Z,97810.95
2018-12-09T11:52:24.862Z,97817.10
2018-12-09T11:53:26.011Z,97815.77
2018-12-09T11:54:27.184Z,97819.93
2018-12-09T11:55:28.352Z,97812.80
2018-12-09T11:56:29.521Z,97825.88
2018-12-09T11:57:30.669Z,97815.95
2018-12-09T11:58:31.829Z,97822.59
2018-12-09T11:59:33.002Z,97825.25